Главная страница
METAR-TAF:

METAR-TAF

Аэропорты :

Ботсфьорд, Норвегия

широта: 70-38N, долгота: 029-44E, высота над уровнем моря: 10 м

Текущие метеонаблюдения

Эта сводка был подготовлена 44 минут назад, в 05:50 UTC
Ветер 14 Узел от северный
Температура 8°C
Влажность 100%
Давление 1005 hPa
Видимость: 1000 м
Отдельные облака на высоте 200 фута
Сплошная облачность на высоте 300 фута
туман, небольшой морось

METAR: ENBS 210550Z 01014KT 1000 FG -DZ SCT002 OVC003 08/08 Q1005

Время: 08:34 (06:34 UTC)


TAF: отсутствует

Метеонаблюдения и прогнозы для более 4000 аэропортов (сводки METAR и TAF).

Имеющиеся станции представлены на карте желтыми и красными точками.

Чтобы увидеть название станции, наведите на нее мышь.

Затем щелкните, чтобы увидеть метеонаблюдения и метеопрогнозы.

Управление картой: чтобы увеличить масштаб, щелкните зеленые кнопки с черным крестиком; чтобы уменьшить масштаб, щелкните зеленую кнопку с тире; для просмотра соседних карт щелкайте зеленые стрелки.


METAR-TAF: